createdAt,value
2022-07-29T00:02:15.132Z,18.31
2022-07-29T00:04:41.891Z,18.21
2022-07-29T00:07:08.516Z,18.12
2022-07-29T00:09:51.199Z,18.02
2022-07-29T00:12:25.759Z,18.19
2022-07-29T00:14:56.157Z,18.20
2022-07-29T00:17:25.914Z,18.09
2022-07-29T00:19:52.707Z,18.04
2022-07-29T00:22:20.332Z,18.06
2022-07-29T00:24:48.759Z,17.43
2022-07-29T00:27:15.350Z,17.92
2022-07-29T00:29:41.809Z,17.80
2022-07-29T00:32:09.148Z,17.73
2022-07-29T00:34:54.212Z,17.67
2022-07-29T00:37:20.627Z,17.81
2022-07-29T00:39:47.102Z,17.65
2022-07-29T00:42:13.656Z,17.67
2022-07-29T00:44:42.542Z,17.57
2022-07-29T00:47:11.195Z,17.43
2022-07-29T00:49:40.245Z,17.41
2022-07-29T00:52:08.524Z,17.41
2022-07-29T00:54:36.275Z,17.50
2022-07-29T00:57:10.306Z,17.46
2022-07-29T00:59:36.961Z,17.48
2022-07-29T01:02:04.479Z,17.49
2022-07-29T01:04:32.237Z,17.61
2022-07-29T01:06:59.672Z,17.18
2022-07-29T01:09:42.114Z,17.57
2022-07-29T01:12:25.238Z,17.66
2022-07-29T01:14:52.961Z,17.64
2022-07-29T01:17:27.810Z,17.68
2022-07-29T01:20:02.771Z,17.67
2022-07-29T01:22:35.254Z,17.45
2022-07-29T01:25:25.534Z,17.44
2022-07-29T01:28:11.746Z,17.43
2022-07-29T01:30:39.684Z,17.23
2022-07-29T01:33:34.688Z,17.32
2022-07-29T01:36:05.042Z,17.15
2022-07-29T01:38:31.689Z,17.14
2022-07-29T01:41:10.865Z,17.06
2022-07-29T01:43:44.986Z,17.23
2022-07-29T01:46:15.711Z,17.19
2022-07-29T01:48:53.396Z,17.16
2022-07-29T01:51:25.190Z,17.15
2022-07-29T01:53:59.368Z,17.04
2022-07-29T01:56:31.754Z,16.96
2022-07-29T01:58:59.525Z,16.96
2022-07-29T02:01:28.247Z,16.89
2022-07-29T02:03:56.707Z,16.52
2022-07-29T02:06:24.576Z,16.62
2022-07-29T02:08:53.620Z,16.62
2022-07-29T02:11:20.485Z,16.62
2022-07-29T02:13:48.294Z,16.61
2022-07-29T02:16:18.586Z,16.68
2022-07-29T02:18:48.321Z,16.46
2022-07-29T02:21:20.362Z,16.43
2022-07-29T02:23:51.513Z,16.45
2022-07-29T02:26:19.089Z,16.24
2022-07-29T02:28:47.151Z,16.15
2022-07-29T02:31:15.488Z,15.96
2022-07-29T02:33:43.830Z,15.55
2022-07-29T02:36:11.558Z,15.50
2022-07-29T02:38:55.447Z,15.52
2022-07-29T02:41:28.484Z,15.70
2022-07-29T02:44:32.622Z,15.76
2022-07-29T02:47:22.093Z,15.71
2022-07-29T02:50:10.231Z,15.66
2022-07-29T02:52:47.468Z,15.71
2022-07-29T02:55:31.443Z,15.75
2022-07-29T02:58:02.968Z,15.81
2022-07-29T03:00:32.118Z,15.65
2022-07-29T03:03:03.351Z,15.51
2022-07-29T03:05:30.822Z,15.53
2022-07-29T03:08:02.897Z,15.28
2022-07-29T03:10:30.151Z,15.35
2022-07-29T03:12:57.387Z,15.37
2022-07-29T03:15:27.152Z,15.33
2022-07-29T03:17:54.803Z,15.20
2022-07-29T03:20:21.801Z,15.00
2022-07-29T03:22:48.559Z,14.70
2022-07-29T03:25:16.926Z,14.77
2022-07-29T03:27:43.902Z,14.54
2022-07-29T03:30:11.976Z,14.44
2022-07-29T03:32:44.988Z,14.25
2022-07-29T03:35:11.733Z,13.47
2022-07-29T03:37:38.377Z,14.33
2022-07-29T03:40:09.635Z,14.41
2022-07-29T03:42:38.976Z,14.60
2022-07-29T03:45:13.386Z,14.43
2022-07-29T03:47:50.476Z,14.59
2022-07-29T03:50:21.048Z,14.55
2022-07-29T03:52:48.949Z,14.57
2022-07-29T03:55:16.107Z,14.53
2022-07-29T03:57:43.652Z,14.39
2022-07-29T04:00:11.066Z,14.40
2022-07-29T04:02:39.566Z,14.53
2022-07-29T04:05:06.301Z,14.42
2022-07-29T04:07:32.785Z,14.30
2022-07-29T04:09:59.259Z,14.40
2022-07-29T04:12:25.822Z,14.46
2022-07-29T04:14:52.262Z,14.12
2022-07-29T04:17:18.729Z,14.35
2022-07-29T04:19:45.180Z,14.29
2022-07-29T04:22:11.602Z,14.31
2022-07-29T04:24:38.077Z,14.19
2022-07-29T04:27:04.594Z,13.77
2022-07-29T04:29:31.016Z,14.03
2022-07-29T04:31:57.492Z,14.33
2022-07-29T04:34:28.055Z,14.53
2022-07-29T04:36:55.058Z,14.73
2022-07-29T04:39:23.172Z,14.93
2022-07-29T04:41:51.173Z,14.59
2022-07-29T04:44:20.277Z,15.43
2022-07-29T04:46:46.840Z,15.49
2022-07-29T04:49:14.056Z,15.60
2022-07-29T04:51:40.782Z,15.47
2022-07-29T04:54:07.284Z,15.34
2022-07-29T04:56:33.797Z,15.45
2022-07-29T04:59:00.213Z,15.22
2022-07-29T05:01:27.060Z,15.04
2022-07-29T05:03:58.308Z,14.92
2022-07-29T05:06:26.737Z,15.00
2022-07-29T05:08:53.196Z,15.08
2022-07-29T05:11:22.444Z,15.12
2022-07-29T05:13:49.644Z,14.96
2022-07-29T05:16:16.316Z,14.87
2022-07-29T05:18:43.270Z,15.02
2022-07-29T05:21:10.076Z,15.23
2022-07-29T05:23:36.585Z,15.65
2022-07-29T05:26:03.081Z,16.03
2022-07-29T05:28:30.216Z,16.01
2022-07-29T05:30:57.351Z,16.80
2022-07-29T05:33:35.199Z,17.34
2022-07-29T05:36:08.002Z,17.60
2022-07-29T05:38:37.654Z,18.16
2022-07-29T05:41:05.492Z,18.42
2022-07-29T05:43:32.711Z,19.03
2022-07-29T05:45:59.469Z,19.20
2022-07-29T05:48:26.260Z,19.68
2022-07-29T05:50:52.880Z,20.03
2022-07-29T05:53:20.747Z,20.32
2022-07-29T05:55:50.832Z,20.54
2022-07-29T05:58:17.293Z,20.97
2022-07-29T06:00:43.943Z,21.02
2022-07-29T06:03:10.528Z,21.23
2022-07-29T06:05:36.995Z,21.41
2022-07-29T06:08:06.579Z,21.45
2022-07-29T06:10:33.081Z,21.11
2022-07-29T06:12:59.564Z,21.15
2022-07-29T06:15:26.007Z,21.26
2022-07-29T06:17:59.194Z,21.48
2022-07-29T06:20:27.811Z,21.78
2022-07-29T06:22:54.604Z,21.84
2022-07-29T06:25:21.115Z,22.01
2022-07-29T06:27:47.639Z,22.11
2022-07-29T06:30:14.324Z,22.10
2022-07-29T06:32:43.198Z,22.53
2022-07-29T06:35:39.384Z,22.78
2022-07-29T06:37:58.029Z,22.55
2022-07-29T06:40:45.320Z,22.58
2022-07-29T06:43:11.820Z,22.36
2022-07-29T06:45:41.866Z,22.39
2022-07-29T06:48:08.628Z,22.66
2022-07-29T06:50:35.146Z,22.93
2022-07-29T06:53:02.465Z,23.24
2022-07-29T06:55:28.879Z,23.19
2022-07-29T06:57:56.302Z,23.14
2022-07-29T07:03:13.632Z,23.68
2022-07-29T07:05:40.131Z,23.83
2022-07-29T07:08:07.068Z,23.87
2022-07-29T07:10:33.953Z,23.60
2022-07-29T07:13:00.763Z,23.23
2022-07-29T07:15:39.361Z,22.60
2022-07-29T07:18:07.386Z,22.72
2022-07-29T07:20:34.821Z,22.55
2022-07-29T07:23:01.463Z,22.12
2022-07-29T07:25:28.055Z,22.15
2022-07-29T07:27:54.663Z,22.21
2022-07-29T07:30:21.461Z,22.67
2022-07-29T07:32:48.171Z,23.15
2022-07-29T07:35:14.927Z,23.71
2022-07-29T07:37:42.753Z,23.80
2022-07-29T07:40:10.973Z,24.51
2022-07-29T07:42:37.451Z,25.11
2022-07-29T07:45:16.370Z,25.50
2022-07-29T07:47:43.655Z,25.87
2022-07-29T07:50:18.056Z,25.71
2022-07-29T07:52:50.239Z,25.52
2022-07-29T07:55:17.845Z,25.52
2022-07-29T07:57:45.526Z,25.31
2022-07-29T08:00:13.725Z,25.44
2022-07-29T08:02:41.264Z,25.53
2022-07-29T08:05:12.564Z,25.64
2022-07-29T08:07:39.620Z,25.49
2022-07-29T08:10:06.719Z,25.65
2022-07-29T08:12:33.181Z,25.44
2022-07-29T08:14:59.737Z,25.36
2022-07-29T08:17:27.570Z,25.18
2022-07-29T08:19:54.030Z,25.03
2022-07-29T08:22:20.686Z,25.06
2022-07-29T08:24:57.217Z,25.07
2022-07-29T08:27:43.094Z,25.03
2022-07-29T08:30:11.148Z,25.05
2022-07-29T08:32:53.013Z,24.49
2022-07-29T08:35:21.163Z,24.95
2022-07-29T08:37:47.813Z,25.06
2022-07-29T08:40:15.259Z,25.55
2022-07-29T08:42:42.034Z,26.02
2022-07-29T08:45:09.697Z,26.48
2022-07-29T08:47:40.664Z,27.05
2022-07-29T08:50:10.713Z,27.12
2022-07-29T08:52:42.608Z,27.32
2022-07-29T08:55:11.017Z,27.44
2022-07-29T08:57:50.915Z,27.50
2022-07-29T09:00:22.760Z,27.45
2022-07-29T09:02:56.092Z,27.35
2022-07-29T09:05:24.525Z,27.06
2022-07-29T09:07:51.648Z,26.80
2022-07-29T09:10:18.585Z,26.62
2022-07-29T09:12:45.430Z,26.49
2022-07-29T09:15:11.841Z,26.62
2022-07-29T09:17:45.493Z,26.56
2022-07-29T09:20:14.894Z,26.74
2022-07-29T09:22:42.354Z,26.78
2022-07-29T09:25:09.776Z,26.42
2022-07-29T09:27:36.928Z,26.24
2022-07-29T09:30:11.324Z,26.42
2022-07-29T09:32:55.683Z,26.32
2022-07-29T09:35:24.519Z,26.22
2022-07-29T09:37:51.805Z,26.68
2022-07-29T09:40:24.370Z,26.71
2022-07-29T09:42:51.850Z,26.73
2022-07-29T09:45:32.509Z,26.69
2022-07-29T09:48:04.203Z,26.76
2022-07-29T09:50:38.445Z,26.74
2022-07-29T09:53:04.923Z,26.82
2022-07-29T09:55:31.327Z,26.81
2022-07-29T09:58:19.596Z,27.14
2022-07-29T10:00:47.558Z,27.30
2022-07-29T10:03:16.562Z,27.47
2022-07-29T10:05:43.932Z,27.52
2022-07-29T10:08:13.239Z,27.43
2022-07-29T10:10:42.516Z,27.27
2022-07-29T10:13:15.974Z,27.18
2022-07-29T10:15:46.045Z,27.17
2022-07-29T10:18:15.480Z,27.02
2022-07-29T10:20:42.267Z,26.50
2022-07-29T10:23:09.917Z,26.55
2022-07-29T10:25:36.467Z,26.55
2022-07-29T10:28:03.711Z,26.61
2022-07-29T10:30:32.008Z,26.62
2022-07-29T10:33:57.506Z,26.50
2022-07-29T10:36:45.486Z,26.43
2022-07-29T10:42:33.915Z,26.29
2022-07-29T10:45:02.736Z,26.18
2022-07-29T10:47:32.166Z,26.20
2022-07-29T10:50:01.090Z,26.07
2022-07-29T10:52:54.991Z,26.05
2022-07-29T10:55:37.416Z,26.05
2022-07-29T10:58:14.809Z,26.04
2022-07-29T11:00:41.755Z,25.98
2022-07-29T11:06:59.325Z,25.98
2022-07-29T11:09:35.206Z,26.07
2022-07-29T11:12:25.217Z,26.15
2022-07-29T11:14:53.318Z,26.18
2022-07-29T11:17:19.929Z,26.23
2022-07-29T11:19:51.954Z,26.36
2022-07-29T11:22:35.751Z,26.85
2022-07-29T11:25:17.112Z,27.13
2022-07-29T11:27:46.084Z,27.33
2022-07-29T11:30:13.114Z,27.41
2022-07-29T11:32:44.633Z,27.32
2022-07-29T11:35:37.653Z,27.44
2022-07-29T11:38:31.635Z,27.40
2022-07-29T11:41:21.026Z,27.18
2022-07-29T11:43:50.823Z,27.41
2022-07-29T11:46:38.730Z,27.70
2022-07-29T11:49:09.270Z,27.79
2022-07-29T11:51:38.243Z,28.27
2022-07-29T11:54:27.483Z,28.41
2022-07-29T11:56:54.886Z,28.33
2022-07-29T11:59:22.268Z,28.21
2022-07-29T12:02:18.508Z,27.42
2022-07-29T12:04:55.563Z,27.16
2022-07-29T12:07:35.338Z,26.55
2022-07-29T12:10:03.815Z,26.37
2022-07-29T12:12:30.295Z,26.66
2022-07-29T12:14:57.112Z,26.94
2022-07-29T12:17:34.618Z,27.05
2022-07-29T12:20:04.289Z,27.41
2022-07-29T12:22:37.597Z,27.82
2022-07-29T12:25:32.041Z,28.03
2022-07-29T12:28:05.137Z,28.18
2022-07-29T12:30:42.981Z,27.96
2022-07-29T12:33:13.811Z,28.06
2022-07-29T12:35:40.921Z,28.14
2022-07-29T12:38:07.681Z,28.40
2022-07-29T12:40:34.568Z,28.45
2022-07-29T12:43:12.064Z,28.65
2022-07-29T12:45:44.107Z,28.67
2022-07-29T12:48:11.414Z,28.72
2022-07-29T12:50:53.934Z,28.83
2022-07-29T12:53:20.779Z,28.81
2022-07-29T12:55:55.206Z,28.83
2022-07-29T12:58:36.384Z,28.86
2022-07-29T13:01:17.172Z,28.87
2022-07-29T13:03:56.778Z,28.73
2022-07-29T13:06:45.786Z,28.62
2022-07-29T13:09:14.449Z,28.58
2022-07-29T13:11:48.403Z,28.42
2022-07-29T13:14:34.549Z,28.42
2022-07-29T13:17:24.356Z,28.51
2022-07-29T13:19:53.994Z,28.65
2022-07-29T13:22:25.116Z,28.57
2022-07-29T13:25:00.117Z,28.57
2022-07-29T13:27:28.903Z,28.63
2022-07-29T13:30:00.340Z,28.57
2022-07-29T13:32:29.169Z,28.75
2022-07-29T13:35:05.155Z,29.05
2022-07-29T13:37:35.003Z,29.25
2022-07-29T13:40:04.006Z,29.33
2022-07-29T13:42:31.136Z,29.38
2022-07-29T13:44:57.692Z,28.92
2022-07-29T13:47:32.772Z,29.05
2022-07-29T13:50:01.855Z,28.96
2022-07-29T13:52:29.187Z,28.99
2022-07-29T13:54:55.784Z,28.92
2022-07-29T13:57:22.321Z,28.66
2022-07-29T13:59:53.752Z,28.78
2022-07-29T14:02:21.463Z,28.28
2022-07-29T14:04:53.189Z,28.37
2022-07-29T14:07:19.798Z,28.44
2022-07-29T14:09:46.234Z,28.34
2022-07-29T14:12:12.905Z,28.11
2022-07-29T14:14:39.573Z,28.11
2022-07-29T14:17:07.398Z,28.14
2022-07-29T14:19:36.734Z,28.22
2022-07-29T14:22:07.400Z,28.20
2022-07-29T14:24:37.074Z,28.11
2022-07-29T14:27:07.999Z,28.21
2022-07-29T14:29:38.348Z,28.06
2022-07-29T14:32:11.381Z,28.17
2022-07-29T14:34:38.903Z,28.11
2022-07-29T14:37:06.585Z,28.12
2022-07-29T14:39:36.104Z,27.96
2022-07-29T14:42:06.368Z,27.86
2022-07-29T14:44:32.897Z,27.68
2022-07-29T14:47:01.119Z,27.99
2022-07-29T14:49:34.348Z,28.25
2022-07-29T14:52:01.700Z,28.38
2022-07-29T14:54:28.296Z,28.53
2022-07-29T14:56:57.801Z,28.70
2022-07-29T14:59:24.505Z,28.75
2022-07-29T15:01:50.994Z,28.86
2022-07-29T15:04:17.594Z,28.92
2022-07-29T15:06:44.713Z,28.87
2022-07-29T15:09:11.371Z,28.76
2022-07-29T15:11:38.636Z,28.79
2022-07-29T15:14:06.621Z,28.75
2022-07-29T15:16:33.755Z,28.77
2022-07-29T15:19:01.087Z,28.83
2022-07-29T15:21:28.464Z,28.87
2022-07-29T15:23:55.073Z,28.85
2022-07-29T15:26:21.593Z,28.89
2022-07-29T15:28:48.817Z,28.75
2022-07-29T15:31:15.581Z,28.75
2022-07-29T15:33:42.043Z,28.71
2022-07-29T15:36:08.618Z,28.74
2022-07-29T15:38:35.048Z,28.83
2022-07-29T15:41:08.519Z,28.83
2022-07-29T15:43:36.085Z,28.94
2022-07-29T15:46:21.444Z,29.01
2022-07-29T15:48:49.105Z,29.08
2022-07-29T15:51:15.672Z,29.12
2022-07-29T15:53:42.222Z,29.06
2022-07-29T15:56:08.757Z,28.96
2022-07-29T15:58:35.269Z,28.79
2022-07-29T16:01:01.833Z,28.55
2022-07-29T16:03:28.574Z,28.32
2022-07-29T16:05:55.056Z,28.45
2022-07-29T16:08:21.625Z,28.01
2022-07-29T16:10:48.179Z,28.36
2022-07-29T16:13:17.065Z,28.26
2022-07-29T16:15:45.751Z,28.21
2022-07-29T16:18:30.430Z,28.26
2022-07-29T16:20:57.630Z,28.38
2022-07-29T16:23:24.641Z,28.47
2022-07-29T16:25:59.634Z,28.50
2022-07-29T16:28:27.902Z,28.53
2022-07-29T16:30:54.432Z,28.62
2022-07-29T16:33:20.968Z,28.66
2022-07-29T16:35:47.460Z,28.58
2022-07-29T16:38:13.902Z,28.64
2022-07-29T16:40:40.673Z,28.56
2022-07-29T16:43:07.346Z,28.46
2022-07-29T16:45:46.292Z,28.54
2022-07-29T16:48:17.914Z,28.51
2022-07-29T16:50:45.643Z,28.54
2022-07-29T16:53:12.420Z,28.53
2022-07-29T16:55:38.894Z,28.51
2022-07-29T16:58:09.724Z,28.57
2022-07-29T17:00:36.559Z,28.56
2022-07-29T17:03:03.180Z,28.45
2022-07-29T17:05:29.636Z,28.49
2022-07-29T17:08:16.305Z,28.57
2022-07-29T17:10:43.053Z,28.61
2022-07-29T17:13:09.760Z,28.55
2022-07-29T17:15:36.641Z,28.35
2022-07-29T17:18:12.497Z,28.23
2022-07-29T17:20:41.493Z,28.31
2022-07-29T17:23:08.059Z,28.31
2022-07-29T17:25:34.509Z,28.31
2022-07-29T17:28:01.511Z,28.22
2022-07-29T17:30:28.832Z,28.01
2022-07-29T17:32:55.358Z,27.98
2022-07-29T17:35:40.401Z,27.99
2022-07-29T17:38:07.007Z,27.91
2022-07-29T17:40:33.480Z,27.86
2022-07-29T17:42:59.942Z,27.82
2022-07-29T17:45:26.431Z,27.76
2022-07-29T17:48:12.863Z,27.72
2022-07-29T17:50:39.823Z,27.70
2022-07-29T17:53:15.578Z,27.66
2022-07-29T17:55:45.189Z,27.66
2022-07-29T17:58:11.768Z,27.37
2022-07-29T18:00:38.292Z,27.33
2022-07-29T18:03:04.823Z,27.39
2022-07-29T18:05:31.464Z,27.39
2022-07-29T18:07:58.430Z,27.35
2022-07-29T18:10:26.145Z,27.16
2022-07-29T18:12:53.023Z,27.07
2022-07-29T18:15:19.644Z,27.10
2022-07-29T18:17:56.497Z,27.05
2022-07-29T18:20:24.267Z,26.96
2022-07-29T18:22:51.110Z,26.91
2022-07-29T18:25:17.597Z,26.86
2022-07-29T18:27:44.115Z,26.67
2022-07-29T18:30:10.689Z,26.35
2022-07-29T18:32:37.139Z,25.86
2022-07-29T18:35:05.680Z,25.32
2022-07-29T18:38:01.669Z,24.67
2022-07-29T18:40:20.886Z,23.82
2022-07-29T18:42:47.610Z,23.58
2022-07-29T18:45:19.239Z,23.24
2022-07-29T18:47:47.567Z,23.15
2022-07-29T18:50:14.586Z,22.99
2022-07-29T18:52:41.400Z,23.23
2022-07-29T18:55:08.851Z,23.09
2022-07-29T18:57:54.834Z,22.80
2022-07-29T19:00:22.776Z,22.77
2022-07-29T19:02:49.788Z,22.83
2022-07-29T19:05:16.433Z,22.73
2022-07-29T19:07:42.961Z,22.53
2022-07-29T19:10:09.708Z,22.39
2022-07-29T19:12:36.177Z,22.61
2022-07-29T19:15:04.224Z,22.62
2022-07-29T19:17:30.678Z,22.47
2022-07-29T19:19:58.144Z,22.58
2022-07-29T19:22:24.632Z,22.60
2022-07-29T19:24:51.244Z,22.68
2022-07-29T19:27:17.707Z,22.70
2022-07-29T19:29:44.357Z,22.74
2022-07-29T19:32:10.770Z,22.78
2022-07-29T19:34:37.489Z,22.69
2022-07-29T19:37:04.557Z,22.72
2022-07-29T19:39:34.912Z,22.68
2022-07-29T19:42:03.402Z,22.67
2022-07-29T19:44:30.243Z,22.54
2022-07-29T19:46:57.035Z,22.17
2022-07-29T19:49:23.963Z,22.06
2022-07-29T19:51:50.481Z,21.96
2022-07-29T19:54:20.248Z,21.91
2022-07-29T19:56:46.701Z,21.65
2022-07-29T19:59:13.140Z,21.61
2022-07-29T20:01:39.552Z,21.54
2022-07-29T20:04:06.095Z,21.39
2022-07-29T20:06:32.638Z,21.25
2022-07-29T20:08:59.216Z,21.34
2022-07-29T20:11:26.489Z,21.42
2022-07-29T20:13:52.961Z,21.57
2022-07-29T20:16:19.575Z,21.77
2022-07-29T20:18:46.173Z,21.83
2022-07-29T20:21:13.414Z,21.74
2022-07-29T20:23:39.985Z,21.61
2022-07-29T20:26:09.483Z,21.42
2022-07-29T20:28:37.086Z,21.54
2022-07-29T20:31:03.810Z,21.46
2022-07-29T20:33:30.341Z,21.39
2022-07-29T20:35:56.863Z,21.57
2022-07-29T20:38:23.306Z,21.68
2022-07-29T20:40:50.715Z,21.71
2022-07-29T20:43:17.275Z,21.64
2022-07-29T20:45:43.810Z,21.78
2022-07-29T20:48:10.638Z,21.87
2022-07-29T20:50:37.178Z,21.45
2022-07-29T20:53:03.683Z,21.76
2022-07-29T20:55:31.886Z,21.53
2022-07-29T20:57:58.677Z,21.82
2022-07-29T21:00:25.160Z,21.83
2022-07-29T21:02:51.707Z,21.90
2022-07-29T21:05:18.377Z,21.88
2022-07-29T21:07:44.965Z,21.87
2022-07-29T21:10:11.660Z,21.78
2022-07-29T21:12:38.175Z,21.51
2022-07-29T21:15:06.474Z,21.30
2022-07-29T21:17:38.899Z,21.28
2022-07-29T21:20:08.565Z,20.95
2022-07-29T21:22:35.083Z,20.81
2022-07-29T21:25:02.928Z,20.71
2022-07-29T21:27:47.815Z,20.63
2022-07-29T21:30:14.264Z,20.79
2022-07-29T21:32:40.766Z,20.79
2022-07-29T21:35:14.532Z,20.76
2022-07-29T21:37:54.000Z,20.69
2022-07-29T21:40:20.534Z,20.65
2022-07-29T21:42:47.191Z,20.64
2022-07-29T21:45:13.643Z,20.64
2022-07-29T21:47:40.055Z,20.61
2022-07-29T21:50:06.916Z,20.12
2022-07-29T21:52:33.821Z,20.25
2022-07-29T21:55:04.181Z,20.26
2022-07-29T21:57:30.705Z,20.31
2022-07-29T22:00:02.162Z,20.37
2022-07-29T22:02:29.272Z,20.07
2022-07-29T22:04:55.765Z,19.90
2022-07-29T22:07:22.476Z,19.77
2022-07-29T22:09:49.001Z,19.85
2022-07-29T22:12:15.448Z,19.88
2022-07-29T22:14:42.077Z,19.77
2022-07-29T22:17:33.372Z,19.78
2022-07-29T22:20:00.343Z,19.74
2022-07-29T22:22:26.999Z,19.91
2022-07-29T22:28:06.934Z,19.86
2022-07-29T22:30:33.516Z,19.79
2022-07-29T22:33:00.088Z,19.85
2022-07-29T22:35:26.571Z,19.90
2022-07-29T22:37:53.217Z,20.01
2022-07-29T22:40:19.838Z,20.02
2022-07-29T22:42:46.311Z,20.02
2022-07-29T22:45:12.805Z,19.95
2022-07-29T22:47:48.484Z,19.78
2022-07-29T22:50:15.939Z,19.69
2022-07-29T22:52:42.474Z,19.58
2022-07-29T22:55:09.191Z,19.59
2022-07-29T22:57:35.699Z,19.35
2022-07-29T23:00:02.512Z,19.32
2022-07-29T23:02:29.214Z,19.12
2022-07-29T23:04:56.148Z,18.69
2022-07-29T23:07:23.260Z,18.38
2022-07-29T23:09:50.179Z,18.21
2022-07-29T23:12:16.728Z,18.10
2022-07-29T23:14:44.297Z,18.25
2022-07-29T23:17:10.796Z,18.25
2022-07-29T23:19:37.304Z,18.19
2022-07-29T23:22:04.708Z,18.15
2022-07-29T23:24:31.245Z,18.35
2022-07-29T23:26:57.911Z,18.27
2022-07-29T23:29:24.661Z,18.22
2022-07-29T23:31:51.626Z,18.25
2022-07-29T23:34:18.182Z,17.99
2022-07-29T23:36:44.649Z,18.07
2022-07-29T23:39:12.237Z,18.03
2022-07-29T23:41:38.954Z,18.07
2022-07-29T23:44:06.337Z,17.69
2022-07-29T23:46:33.160Z,17.52
2022-07-29T23:48:59.997Z,17.56
2022-07-29T23:51:28.825Z,17.65
2022-07-29T23:53:55.273Z,17.50
2022-07-29T23:56:21.938Z,17.44
2022-07-29T23:58:48.357Z,17.17
